Time;durP1;ratioP1;P1;durP2;ratioP2;P2;SDS_P1;SDS_P2;PMS_P1;PMS_P2;Temp;Humidity;BMP_temperature;BMP_pressure;BME280_temperature;BME280_humidity;BME280_pressure;Samples;Min_cycle;Max_cycle;Signal;HPM_P1;HPM_P2
2022/06/13 00:01:46;;;;;;;11.52;6.55;;;16.40;93.20;;;;;;4935449;28;93086;-72
2022/06/13 00:04:13;;;;;;;10.68;6.30;;;16.40;93.20;;;;;;4936929;28;92377;-72
2022/06/13 00:06:40;;;;;;;13.32;5.90;;;16.40;93.20;;;;;;4935321;28;92433;-71
2022/06/13 00:09:07;;;;;;;12.18;6.10;;;16.40;93.30;;;;;;4935581;28;93231;-72
2022/06/13 00:11:34;;;;;;;10.23;6.22;;;16.40;93.30;;;;;;4936569;28;92725;-72
2022/06/13 00:14:02;;;;;;;10.52;4.97;;;16.40;93.40;;;;;;4935544;28;92534;-72
2022/06/13 00:16:30;;;;;;;13.00;5.32;;;16.40;93.40;;;;;;4936676;28;92421;-71
2022/06/13 00:18:57;;;;;;;6.28;5.25;;;16.40;93.50;;;;;;4933715;28;98304;-72
2022/06/13 00:21:28;;;;;;;10.40;5.38;;;16.30;93.50;;;;;;4936081;28;95532;-72
2022/06/13 00:23:55;;;;;;;11.10;5.75;;;16.40;93.60;;;;;;4936354;28;92457;-72
2022/06/13 00:26:25;;;;;;;9.10;5.43;;;16.30;93.60;;;;;;4935396;28;92896;-72
2022/06/13 00:28:53;;;;;;;13.38;5.07;;;16.30;93.70;;;;;;4939805;28;93149;-72
2022/06/13 00:31:20;;;;;;;11.23;5.28;;;16.20;93.80;;;;;;4938376;28;95571;-72
2022/06/13 00:33:47;;;;;;;8.63;5.30;;;16.20;93.90;;;;;;4938451;28;92470;-72
2022/06/13 00:36:15;;;;;;;7.53;4.55;;;16.10;94.00;;;;;;4940281;28;91666;-72
2022/06/13 00:38:43;;;;;;;11.38;6.05;;;16.20;94.10;;;;;;4939427;28;93221;-72
2022/06/13 00:41:17;;;;;;;11.25;5.35;;;16.10;94.20;;;;;;4939604;28;93007;-72
2022/06/13 00:43:45;;;;;;;12.63;6.10;;;16.10;94.30;;;;;;4937235;28;94918;-72
2022/06/13 00:46:28;;;;;;;10.90;5.45;;;16.10;94.30;;;;;;4937796;28;108290;-72
2022/06/13 00:49:00;;;;;;;7.75;5.78;;;16.20;94.40;;;;;;4939371;28;93063;-72
2022/06/13 00:51:29;;;;;;;10.38;6.40;;;16.10;94.40;;;;;;4939668;28;94211;-72
2022/06/13 00:53:56;;;;;;;9.77;5.55;;;16.10;94.50;;;;;;4939567;28;93012;-72
2022/06/13 00:56:27;;;;;;;11.43;6.22;;;16.10;94.60;;;;;;4938430;28;92570;-72
2022/06/13 00:58:58;;;;;;;10.93;5.95;;;16.10;94.60;;;;;;4938508;28;93267;-72
2022/06/13 01:01:26;;;;;;;11.13;5.78;;;16.10;94.70;;;;;;4939527;28;99889;-72
2022/06/13 01:03:56;;;;;;;12.63;5.40;;;16.10;94.70;;;;;;4937954;28;93009;-72
2022/06/13 01:06:25;;;;;;;11.13;5.53;;;16.10;94.80;;;;;;4937989;28;92509;-72
2022/06/13 01:08:52;;;;;;;10.10;6.38;;;16.00;94.80;;;;;;4936437;28;98277;-72
2022/06/13 01:11:22;;;;;;;13.15;5.80;;;16.00;94.80;;;;;;4937646;28;97096;-72
2022/06/13 01:14:13;;;;;;;10.63;6.22;;;16.00;94.80;;;;;;4938925;28;92487;-72
2022/06/13 01:16:45;;;;;;;9.02;5.75;;;16.00;94.90;;;;;;4939496;28;92517;-72
2022/06/13 01:19:27;;;;;;;11.90;7.40;;;15.90;95.00;;;;;;4938117;28;93161;-72
2022/06/13 01:22:16;;;;;;;11.73;6.28;;;15.90;95.00;;;;;;4937830;28;94178;-72
2022/06/13 01:25:10;;;;;;;11.32;6.03;;;15.90;95.10;;;;;;4939565;28;92388;-72
2022/06/13 01:27:46;;;;;;;8.25;5.53;;;15.90;95.20;;;;;;4939665;28;91685;-72
2022/06/13 01:30:28;;;;;;;9.93;5.10;;;15.90;95.20;;;;;;4939085;28;92357;-71
2022/06/13 01:33:08;;;;;;;11.07;5.47;;;16.00;95.20;;;;;;4938850;28;93024;-72
2022/06/13 01:35:45;;;;;;;12.30;6.30;;;15.90;95.20;;;;;;4936661;28;95276;-72
2022/06/13 01:38:42;;;;;;;11.93;5.07;;;15.80;95.20;;;;;;4938736;28;92426;-72
2022/06/13 01:41:12;;;;;;;13.45;5.90;;;15.90;95.10;;;;;;4918413;28;96181;-72
2022/06/13 01:43:49;;;;;;;9.35;6.10;;;15.90;95.20;;;;;;4938713;28;94401;-71
2022/06/13 01:46:35;;;;;;;15.13;5.32;;;15.90;95.20;;;;;;4937667;28;92493;-72
2022/06/13 01:49:04;;;;;;;10.63;5.07;;;16.00;95.20;;;;;;4939084;28;93062;-72
2022/06/13 01:51:36;;;;;;;11.45;5.63;;;15.90;95.20;;;;;;4938612;28;93260;-72
2022/06/13 01:54:15;;;;;;;10.30;4.70;;;16.00;95.30;;;;;;4938881;28;93167;-71
2022/06/13 01:57:25;;;;;;;9.43;5.70;;;16.00;95.20;;;;;;4939021;28;92468;-72
2022/06/13 02:00:06;;;;;;;12.27;6.15;;;15.90;95.20;;;;;;4919868;28;92484;-72
2022/06/13 02:02:50;;;;;;;12.15;6.07;;;15.80;95.40;;;;;;4935836;28;98404;-72
2022/06/13 02:05:35;;;;;;;9.98;6.50;;;15.90;95.40;;;;;;4937079;28;102210;-72
2022/06/13 02:08:14;;;;;;;12.50;5.38;;;15.80;95.50;;;;;;4937296;28;92538;-72
2022/06/13 02:10:54;;;;;;;12.93;5.78;;;15.80;95.60;;;;;;4937124;28;92486;-72
2022/06/13 02:13:31;;;;;;;9.95;5.68;;;15.80;95.70;;;;;;4936961;28;95747;-71
2022/06/13 02:16:04;;;;;;;11.85;6.30;;;15.80;95.70;;;;;;4936764;28;95063;-72
2022/06/13 02:18:35;;;;;;;11.60;6.20;;;15.80;95.70;;;;;;4936998;28;93140;-72
2022/06/13 02:21:12;;;;;;;9.73;4.93;;;15.80;95.70;;;;;;4937210;28;94471;-72
2022/06/13 02:23:47;;;;;;;10.18;6.35;;;15.80;95.80;;;;;;4936694;28;95676;-72
2022/06/13 02:26:31;;;;;;;13.35;7.95;;;15.80;95.80;;;;;;4936709;28;95708;-72
2022/06/13 02:29:18;;;;;;;8.60;5.82;;;15.80;95.80;;;;;;4919596;28;94853;-72
2022/06/13 02:31:50;;;;;;;15.15;6.20;;;15.80;96.00;;;;;;4937260;28;92475;-72
2022/06/13 02:34:23;;;;;;;13.05;6.07;;;15.70;96.00;;;;;;4936782;28;93270;-72
2022/06/13 02:36:58;;;;;;;13.70;6.07;;;15.70;96.10;;;;;;4937053;28;92977;-72
2022/06/13 02:39:47;;;;;;;12.57;6.78;;;15.70;96.20;;;;;;4920656;28;92470;-72
2022/06/13 02:42:40;;;;;;;14.15;6.30;;;15.60;96.30;;;;;;4938142;28;92425;-72
2022/06/13 02:45:18;;;;;;;13.00;6.05;;;15.60;96.30;;;;;;4936799;28;93193;-72
2022/06/13 02:48:07;;;;;;;14.50;6.35;;;15.60;96.50;;;;;;4938276;28;93049;-72
2022/06/13 02:50:57;;;;;;;9.38;6.00;;;15.60;96.50;;;;;;4920363;28;92600;-71
2022/06/13 02:53:32;;;;;;;10.88;7.13;;;15.60;96.60;;;;;;4938073;28;92446;-72
2022/06/13 02:56:05;;;;;;;13.13;6.18;;;15.50;96.70;;;;;;4934750;28;98418;-72
2022/06/13 02:58:53;;;;;;;10.18;6.28;;;15.60;96.70;;;;;;4937447;28;95464;-72
2022/06/13 03:01:30;;;;;;;12.65;7.28;;;15.50;96.80;;;;;;4937782;28;92465;-72
2022/06/13 03:04:14;;;;;;;14.27;6.80;;;15.50;96.80;;;;;;4937846;28;92442;-72
2022/06/13 03:06:55;;;;;;;13.77;7.00;;;15.60;96.90;;;;;;4936154;28;96905;-72
2022/06/13 03:09:36;;;;;;;16.42;6.40;;;15.60;96.90;;;;;;4937689;28;92885;-72
2022/06/13 03:12:11;;;;;;;9.88;7.30;;;15.60;96.90;;;;;;4937664;28;92913;-72
2022/06/13 03:15:03;;;;;;;13.25;6.35;;;15.60;97.00;;;;;;4936223;28;92263;-72
2022/06/13 03:17:55;;;;;;;12.57;6.88;;;15.70;97.00;;;;;;4937504;28;93388;-72
2022/06/13 03:20:47;;;;;;;12.88;6.65;;;15.70;97.00;;;;;;4935804;28;95512;-72
2022/06/13 03:23:33;;;;;;;11.18;7.63;;;15.70;97.10;;;;;;4936277;28;94872;-72
2022/06/13 03:26:07;;;;;;;13.05;6.63;;;15.70;97.10;;;;;;4937711;28;92353;-72
2022/06/13 03:28:46;;;;;;;15.77;8.75;;;15.70;97.10;;;;;;4937327;28;93297;-71
2022/06/13 03:31:22;;;;;;;10.73;6.95;;;15.80;97.20;;;;;;4935732;28;95554;-72
2022/06/13 03:33:54;;;;;;;15.60;6.43;;;15.80;97.20;;;;;;4937586;28;92812;-72
2022/06/13 03:36:42;;;;;;;13.05;6.97;;;15.80;97.20;;;;;;4935659;28;92527;-72
2022/06/13 03:39:16;;;;;;;15.57;6.95;;;15.90;97.20;;;;;;4937041;28;93071;-71
2022/06/13 03:41:53;;;;;;;12.32;7.43;;;15.80;97.30;;;;;;4936296;28;93125;-72
2022/06/13 03:44:22;;;;;;;13.05;7.90;;;15.80;97.30;;;;;;4937313;28;92468;-72
2022/06/13 03:47:01;;;;;;;10.40;7.65;;;15.80;97.40;;;;;;4935942;28;92517;-72
2022/06/13 03:49:49;;;;;;;16.20;7.57;;;15.90;97.40;;;;;;4935698;28;95642;-72
2022/06/13 03:52:18;;;;;;;10.45;6.95;;;15.90;97.40;;;;;;4935102;28;98035;-72
2022/06/13 03:54:48;;;;;;;13.68;7.25;;;15.90;97.50;;;;;;4935681;28;92635;-72
2022/06/13 03:57:27;;;;;;;16.13;7.63;;;15.90;97.50;;;;;;4935414;28;92486;-72
2022/06/13 03:59:59;;;;;;;12.07;7.25;;;16.00;97.50;;;;;;4936364;28;93290;-71
2022/06/13 04:02:30;;;;;;;12.88;7.10;;;16.00;97.50;;;;;;4934710;28;93161;-72
2022/06/13 04:04:57;;;;;;;12.95;7.65;;;16.00;97.40;;;;;;4935892;28;93168;-72
2022/06/13 04:07:26;;;;;;;14.15;7.80;;;16.10;97.40;;;;;;4935165;28;104127;-72
2022/06/13 04:10:05;;;;;;;11.23;7.15;;;16.10;97.40;;;;;;4935270;28;95715;-72
2022/06/13 04:12:59;;;;;;;16.17;8.80;;;16.20;97.30;;;;;;4935135;28;96222;-72
2022/06/13 04:15:35;;;;;;;12.18;7.35;;;16.30;97.30;;;;;;4935519;28;94776;-72
2022/06/13 04:18:47;;;;;;;14.57;6.85;;;16.30;97.30;;;;;;4936755;28;92562;-72
2022/06/13 04:21:38;;;;;;;17.52;7.75;;;16.40;97.20;;;;;;4914542;28;93621;-72
2022/06/13 04:24:17;;;;;;;11.98;7.07;;;16.40;97.20;;;;;;4898820;28;94263;-72
2022/06/13 04:26:50;;;;;;;9.70;6.70;;;16.50;97.10;;;;;;4924315;28;92500;-72
2022/06/13 04:29:35;;;;;;;10.95;7.15;;;16.50;97.00;;;;;;4936623;28;92381;-72
2022/06/13 04:32:04;;;;;;;;;;;16.60;96.80;;;;;;4935409;28;96195;-72
2022/06/13 04:34:41;;;;;;;11.88;7.30;;;16.50;96.60;;;;;;4937713;28;92597;-72
2022/06/13 04:37:09;;;;;;;13.30;7.65;;;16.60;96.80;;;;;;4936986;28;92468;-72
2022/06/13 04:39:38;;;;;;;12.68;7.13;;;16.60;96.70;;;;;;4936242;28;92455;-72
2022/06/13 04:42:08;;;;;;;11.27;5.82;;;16.70;96.60;;;;;;4933471;28;95697;-71
2022/06/13 04:44:39;;;;;;;12.50;5.82;;;16.70;96.50;;;;;;4935734;28;96275;-72
2022/06/13 04:47:07;;;;;;;13.35;7.00;;;16.70;96.40;;;;;;4935135;28;92539;-72
2022/06/13 04:49:52;;;;;;;9.80;5.75;;;16.80;96.40;;;;;;4935040;28;92429;-72
2022/06/13 04:52:31;;;;;;;13.32;7.78;;;16.90;96.10;;;;;;4934609;28;95918;-72
2022/06/13 04:55:05;;;;;;;11.13;6.25;;;17.00;96.00;;;;;;4936223;28;93231;-72
2022/06/13 04:57:33;;;;;;;13.15;6.93;;;17.00;95.90;;;;;;4936298;28;92435;-72
2022/06/13 05:00:02;;;;;;;10.70;5.70;;;17.00;95.80;;;;;;4934290;28;96254;-71
2022/06/13 05:02:52;;;;;;;11.00;5.95;;;17.10;95.70;;;;;;4934351;28;95908;-72
2022/06/13 05:05:34;;;;;;;10.18;5.93;;;17.30;95.20;;;;;;4934299;28;97950;-72
2022/06/13 05:08:21;;;;;;;10.75;6.00;;;17.40;95.10;;;;;;4933695;28;94972;-72
2022/06/13 05:10:51;;;;;;;9.30;4.88;;;17.50;94.80;;;;;;4934884;28;92506;-72
2022/06/13 05:13:19;;;;;;;9.18;4.50;;;17.50;94.50;;;;;;4919003;28;95815;-72
2022/06/13 05:15:54;;;;;;;10.02;4.15;;;17.60;94.20;;;;;;4939153;28;92973;-72
2022/06/13 05:18:23;;;;;;;10.02;5.13;;;17.70;93.90;;;;;;4939383;28;92436;-72
2022/06/13 05:20:56;;;;;;;6.60;3.63;;;17.80;93.70;;;;;;4939263;28;92458;-72
2022/06/13 05:23:41;;;;;;;8.48;5.35;;;17.80;93.50;;;;;;4921711;28;96218;-72
2022/06/13 05:26:08;;;;;;;8.35;3.78;;;18.00;93.00;;;;;;4939652;28;92888;-72
2022/06/13 05:28:36;;;;;;;10.20;4.30;;;18.00;92.90;;;;;;4939322;28;92851;-72
2022/06/13 05:31:18;;;;;;;8.13;3.67;;;18.10;92.30;;;;;;4939060;28;92435;-72
2022/06/13 05:33:47;;;;;;;6.45;3.58;;;18.40;92.10;;;;;;4936682;28;95667;-72
2022/06/13 05:36:18;;;;;;;5.60;3.00;;;18.50;91.80;;;;;;4938670;28;95418;-72
2022/06/13 05:38:55;;;;;;;8.48;3.17;;;18.80;91.20;;;;;;4938081;28;92415;-72
2022/06/13 05:41:22;;;;;;;8.10;3.55;;;19.10;90.60;;;;;;4939047;28;92449;-72
2022/06/13 05:43:50;;;;;;;6.55;2.60;;;19.40;90.10;;;;;;4938831;28;93781;-74
2022/06/13 05:46:32;;;;;;;8.30;3.85;;;19.70;89.40;;;;;;4937304;28;95535;-74
2022/06/13 05:48:59;;;;;;;7.40;3.15;;;19.80;88.50;;;;;;4939055;28;92474;-74
2022/06/13 05:51:27;;;;;;;7.45;2.50;;;19.70;87.30;;;;;;4939136;28;91703;-73
2022/06/13 05:53:56;;;;;;;7.15;4.13;;;19.70;86.80;;;;;;4938186;28;106888;-74
2022/06/13 05:56:25;;;;;;;6.22;2.63;;;19.70;87.20;;;;;;4921476;28;93325;-74
2022/06/13 05:58:53;;;;;;;5.68;2.63;;;19.60;87.00;;;;;;4937241;28;94858;-74
2022/06/13 06:01:20;;;;;;;3.83;1.98;;;19.50;86.60;;;;;;4937192;28;92519;-74
2022/06/13 06:03:47;;;;;;;5.70;3.03;;;19.40;85.40;;;;;;4936805;28;95688;-74
2022/06/13 06:06:20;;;;;;;3.60;2.22;;;19.40;85.90;;;;;;4938399;28;92932;-74
2022/06/13 06:08:48;;;;;;;;;;;19.50;85.90;;;;;;4937581;28;92830;-72
2022/06/13 06:11:15;;;;;;;4.63;2.08;;;19.40;85.20;;;;;;4939679;28;92513;-72
2022/06/13 06:13:42;;;;;;;4.65;2.20;;;19.50;85.60;;;;;;4936619;28;95767;-72
2022/06/13 06:16:14;;;;;;;3.97;2.00;;;19.60;84.60;;;;;;4937093;28;95788;-72
2022/06/13 06:18:41;;;;;;;3.72;1.70;;;19.60;84.10;;;;;;4937115;28;92672;-72
2022/06/13 06:21:08;;;;;;;5.20;2.83;;;19.60;83.30;;;;;;4938401;28;92439;-72
2022/06/13 06:23:35;;;;;;;3.13;1.92;;;19.50;83.10;;;;;;4936657;28;95581;-72
2022/06/13 06:26:03;;;;;;;3.90;1.60;;;19.30;83.30;;;;;;4937780;28;95246;-72
2022/06/13 06:28:30;;;;;;;3.20;2.45;;;19.20;83.70;;;;;;4937563;28;101029;-72
2022/06/13 06:30:58;;;;;;;3.20;2.38;;;19.10;84.30;;;;;;4938224;28;92470;-72
2022/06/13 06:33:27;;;;;;;5.93;2.38;;;19.10;84.60;;;;;;4937943;28;93032;-72
2022/06/13 06:35:54;;;;;;;3.97;1.70;;;19.10;84.70;;;;;;4920863;28;92548;-72
2022/06/13 06:38:23;;;;;;;3.47;1.70;;;19.10;85.00;;;;;;4938298;28;92948;-72
2022/06/13 06:40:50;;;;;;;4.82;2.38;;;19.00;84.70;;;;;;4938055;28;91729;-72
2022/06/13 06:43:18;;;;;;;5.28;1.98;;;19.00;85.40;;;;;;4920450;28;94079;-72
2022/06/13 06:45:45;;;;;;;7.30;3.45;;;19.00;85.90;;;;;;4936393;28;95536;-72
2022/06/13 06:48:20;;;;;;;6.50;1.75;;;19.00;85.80;;;;;;4935716;28;94942;-72
2022/06/13 06:50:49;;;;;;;3.97;2.33;;;19.20;85.90;;;;;;4938029;28;92546;-71
2022/06/13 06:53:19;;;;;;;2.78;1.30;;;19.30;84.80;;;;;;4936565;28;95777;-72
2022/06/13 07:01:23;;;;;;;5.05;2.05;;;19.70;83.40;;;;;;4936747;28;92544;-72
2022/06/13 07:03:50;;;;;;;3.17;2.08;;;19.90;83.60;;;;;;4920153;28;93257;-72
2022/06/13 07:06:17;;;;;;;4.45;2.67;;;20.20;82.90;;;;;;4920671;28;93048;-72
2022/06/13 07:08:44;;;;;;;3.75;1.63;;;20.60;81.50;;;;;;4920346;28;92569;-72
2022/06/13 07:14:11;;;;;;;2.28;1.77;;;20.90;79.20;;;;;;4936456;28;95770;-72
2022/06/13 07:16:38;;;;;;;3.25;1.20;;;21.00;79.60;;;;;;4937092;28;95432;-72
2022/06/13 07:19:05;;;;;;;3.45;2.67;;;21.20;79.00;;;;;;4936474;28;92529;-72
2022/06/13 07:21:32;;;;;;;4.25;2.30;;;21.50;78.20;;;;;;4936431;28;92434;-72
2022/06/13 07:23:59;;;;;;;3.20;1.65;;;21.90;77.50;;;;;;4937252;28;93146;-72
2022/06/13 07:26:27;;;;;;;4.70;2.85;;;22.10;76.60;;;;;;4935346;28;110527;-72
2022/06/13 07:28:55;;;;;;;2.83;1.80;;;22.20;76.10;;;;;;4935622;28;92558;-72
2022/06/13 07:31:28;;;;;;;3.88;1.75;;;22.10;75.90;;;;;;4936517;28;91680;-72
2022/06/13 07:33:55;;;;;;;3.83;1.15;;;22.10;76.00;;;;;;4935976;28;93373;-72
2022/06/13 07:36:22;;;;;;;4.93;1.98;;;22.10;76.10;;;;;;4936204;28;92786;-72
2022/06/13 07:38:49;;;;;;;3.78;1.50;;;22.10;76.00;;;;;;4934466;28;94849;-72
2022/06/13 07:41:21;;;;;;;5.50;2.15;;;22.10;76.70;;;;;;4936105;28;92542;-72
2022/06/13 07:43:50;;;;;;;5.55;2.97;;;22.10;77.10;;;;;;4937170;28;93369;-72
2022/06/13 07:46:17;;;;;;;4.43;1.40;;;22.00;77.00;;;;;;4936984;28;93070;-72
2022/06/13 07:48:47;;;;;;;3.97;2.75;;;22.00;77.20;;;;;;4936905;28;92497;-72
2022/06/13 07:51:14;;;;;;;5.25;1.20;;;21.90;77.20;;;;;;4937223;28;92413;-72
2022/06/13 07:53:42;;;;;;;2.67;1.45;;;21.80;77.20;;;;;;4936808;28;93321;-72
2022/06/13 07:56:28;;;;;;;3.87;2.97;;;21.60;76.40;;;;;;4921810;28;95652;-72
2022/06/13 07:59:03;;;;;;;5.30;1.73;;;21.50;77.20;;;;;;4936102;28;93240;-72
2022/06/13 08:01:30;;;;;;;2.67;1.77;;;21.60;77.20;;;;;;4935500;28;92714;-72
2022/06/13 08:03:57;;;;;;;5.78;1.90;;;21.80;75.80;;;;;;4933358;28;109805;-72
2022/06/13 08:06:25;;;;;;;4.30;1.85;;;22.10;76.30;;;;;;4935390;28;95342;-72
2022/06/13 08:08:52;;;;;;;3.88;2.25;;;22.70;75.00;;;;;;4935343;28;92602;-72
2022/06/13 08:11:34;;;;;;;2.55;1.55;;;23.40;73.30;;;;;;4919447;28;92531;-72
2022/06/13 08:14:01;;;;;;;1.70;0.90;;;24.20;70.00;;;;;;4936551;28;93214;-72
2022/06/13 08:16:29;;;;;;;3.25;2.25;;;24.60;69.80;;;;;;4935147;28;93043;-72
2022/06/13 08:18:56;;;;;;;5.50;2.28;;;24.70;68.40;;;;;;4918849;28;92512;-72
2022/06/13 08:21:23;;;;;;;4.80;1.25;;;24.60;67.40;;;;;;4937122;28;91668;-72
2022/06/13 08:23:50;;;;;;;4.75;2.65;;;24.40;66.20;;;;;;4935118;28;93059;-72
2022/06/13 08:26:17;;;;;;;5.40;2.33;;;24.00;66.50;;;;;;4935129;28;92896;-72
2022/06/13 08:28:44;;;;;;;3.28;1.63;;;23.70;66.90;;;;;;4935370;28;94867;-72
2022/06/13 08:31:14;;;;;;;2.42;1.30;;;23.20;67.90;;;;;;4936679;28;92438;-72
2022/06/13 08:33:41;;;;;;;4.80;1.10;;;22.60;67.90;;;;;;4936502;28;93275;-72
2022/06/13 08:36:10;;;;;;;5.70;3.63;;;22.00;70.00;;;;;;4936147;28;93028;-72
2022/06/13 08:38:37;;;;;;;4.88;1.77;;;21.20;77.80;;;;;;4935025;28;92352;-72
2022/06/13 08:41:10;;;;;;;5.63;1.50;;;20.60;81.10;;;;;;4936299;28;93017;-72
2022/06/13 08:44:02;;;;;;;5.32;1.73;;;20.30;85.00;;;;;;4934841;28;95918;-72
2022/06/13 08:46:38;;;;;;;5.80;2.50;;;19.80;84.80;;;;;;4936597;28;93144;-72
2022/06/13 08:49:28;;;;;;;8.15;2.55;;;19.40;87.20;;;;;;4938496;28;92461;-72
2022/06/13 08:52:24;;;;;;;5.55;2.25;;;19.30;88.30;;;;;;4938404;28;92398;-72
2022/06/13 08:55:02;;;;;;;3.85;2.30;;;19.20;88.50;;;;;;4936562;28;101626;-72
2022/06/13 08:57:33;;;;;;;4.20;1.88;;;19.40;88.90;;;;;;4937862;28;98171;-72
2022/06/13 09:00:06;;;;;;;4.57;1.75;;;19.50;87.40;;;;;;4939260;28;92940;-72
2022/06/13 09:02:49;;;;;;;6.50;2.37;;;19.70;87.50;;;;;;4938111;28;92486;-72
2022/06/13 09:05:47;;;;;;;7.03;3.38;;;20.20;85.60;;;;;;4939693;28;93321;-72
2022/06/13 09:08:32;;;;;;;8.32;3.17;;;20.50;84.30;;;;;;4939588;28;92982;-72
2022/06/13 09:10:59;;;;;;;4.68;2.58;;;20.60;84.80;;;;;;4937910;28;93077;-72
2022/06/13 09:13:32;;;;;;;4.05;2.38;;;20.90;84.10;;;;;;4939957;28;91642;-72
2022/06/13 09:16:30;;;;;;;4.78;2.97;;;21.10;80.20;;;;;;4937671;28;94411;-72
2022/06/13 09:19:22;;;;;;;4.35;2.75;;;21.20;76.60;;;;;;4921563;28;94499;-72
2022/06/13 09:21:53;;;;;;;4.68;2.17;;;21.10;76.90;;;;;;4920697;28;94974;-72
2022/06/13 09:24:46;;;;;;;5.55;1.63;;;21.00;77.80;;;;;;4938214;28;92538;-72
2022/06/13 09:27:37;;;;;;;2.45;2.08;;;21.20;78.30;;;;;;4937453;28;95939;-72
2022/06/13 09:30:22;;;;;;;3.17;1.30;;;21.20;78.80;;;;;;4939116;28;92922;-72
2022/06/13 09:32:56;;;;;;;3.65;1.30;;;21.30;77.60;;;;;;4937956;28;92510;-72
2022/06/13 09:35:28;;;;;;;3.38;2.10;;;21.40;77.30;;;;;;4937833;28;92435;-72
2022/06/13 09:38:16;;;;;;;1.88;1.73;;;21.60;77.00;;;;;;4938755;28;92507;-72
2022/06/13 09:41:11;;;;;;;2.97;1.80;;;21.80;76.10;;;;;;4921707;28;95958;-72
2022/06/13 09:43:53;;;;;;;3.30;1.50;;;21.90;75.10;;;;;;4939119;28;92496;-72
2022/06/13 09:46:31;;;;;;;2.50;2.28;;;21.90;74.70;;;;;;4939045;28;92515;-72
2022/06/13 09:49:13;;;;;;;3.03;1.50;;;22.10;71.50;;;;;;4937481;28;95601;-72
2022/06/13 09:51:56;;;;;;;2.15;1.15;;;22.20;71.20;;;;;;4937284;28;98029;-72
2022/06/13 09:54:46;;;;;;;3.80;2.13;;;22.20;70.60;;;;;;4937648;28;92517;-72
2022/06/13 09:57:41;;;;;;;2.88;1.48;;;22.20;67.90;;;;;;4937416;28;93406;-72
2022/06/13 10:00:23;;;;;;;3.03;1.10;;;22.20;68.10;;;;;;4937241;28;93228;-72
2022/06/13 10:03:04;;;;;;;2.55;0.90;;;22.40;68.20;;;;;;4937189;28;95212;-72
2022/06/13 10:05:54;;;;;;;2.92;2.47;;;22.60;68.90;;;;;;4938844;28;92480;-72
2022/06/13 10:08:36;;;;;;;2.75;1.10;;;22.70;70.40;;;;;;4939085;28;92157;-72
2022/06/13 10:11:48;;;;;;;3.13;1.42;;;22.20;71.20;;;;;;4936602;28;95693;-72
2022/06/13 10:14:37;;;;;;;3.03;1.58;;;21.90;75.40;;;;;;4938511;28;93026;-72
2022/06/13 10:17:28;;;;;;;3.15;1.33;;;21.90;74.70;;;;;;4935690;28;94969;-72
2022/06/13 10:20:07;;;;;;;3.63;1.58;;;22.10;75.40;;;;;;4938837;28;92920;-72
2022/06/13 10:22:40;;;;;;;4.15;1.83;;;22.20;75.50;;;;;;4938482;28;93260;-72
2022/06/13 10:25:38;;;;;;;6.15;2.45;;;22.20;74.80;;;;;;4936548;28;94054;-72
2022/06/13 10:28:39;;;;;;;6.65;2.75;;;22.40;75.90;;;;;;4936538;28;92479;-72
2022/06/13 10:31:20;;;;;;;6.45;1.67;;;22.40;76.20;;;;;;4929580;28;92600;-72
2022/06/13 10:34:07;;;;;;;3.85;2.15;;;22.30;73.30;;;;;;4920593;28;95697;-72
2022/06/13 10:36:54;;;;;;;5.15;1.77;;;22.40;72.60;;;;;;4937227;28;93055;-72
2022/06/13 10:39:24;;;;;;;6.47;1.30;;;22.40;69.40;;;;;;4936661;28;92855;-72
2022/06/13 10:42:07;;;;;;;6.40;1.50;;;22.60;68.50;;;;;;4936856;28;92443;-72
2022/06/13 10:44:37;;;;;;;4.15;1.20;;;22.60;69.00;;;;;;4935280;28;96686;-72
2022/06/13 10:47:16;;;;;;;6.78;2.95;;;22.50;67.90;;;;;;4937167;28;110497;-72
2022/06/13 10:49:49;;;;;;;4.00;1.30;;;22.60;69.20;;;;;;4936676;28;92497;-72
2022/06/13 10:52:21;;;;;;;3.13;2.33;;;22.60;69.20;;;;;;4937890;28;92401;-72
2022/06/13 10:54:56;;;;;;;4.53;1.83;;;22.60;68.50;;;;;;4937797;28;93153;-72
2022/06/13 10:57:34;;;;;;;3.35;2.60;;;22.80;69.20;;;;;;4937417;28;92924;-72
2022/06/13 11:00:24;;;;;;;8.43;1.90;;;23.20;68.80;;;;;;4936300;28;92619;-72
2022/06/13 11:02:51;;;;;;;4.93;2.10;;;23.50;66.90;;;;;;4938179;28;91693;-72
2022/06/13 11:05:23;;;;;;;2.63;1.50;;;23.60;67.50;;;;;;4935873;28;95841;-72
2022/06/13 11:07:51;;;;;;;3.85;1.27;;;23.80;67.00;;;;;;4936259;28;95511;-72
2022/06/13 11:10:24;;;;;;;3.75;2.08;;;23.70;66.00;;;;;;4935943;28;94716;-72
2022/06/13 11:12:52;;;;;;;3.88;2.97;;;23.50;63.30;;;;;;4937633;28;92441;-72
2022/06/13 11:25:00;;;;;;;4.65;1.80;;;22.50;65.60;;;;;;4937491;28;92527;-72
2022/06/13 11:27:41;;;;;;;6.80;2.27;;;22.10;66.90;;;;;;4936019;28;93170;-72
2022/06/13 11:30:29;;;;;;;5.30;2.88;;;21.70;70.00;;;;;;4937487;28;92957;-72
2022/06/13 11:33:13;;;;;;;5.97;2.13;;;21.40;74.30;;;;;;4937671;28;92519;-72
2022/06/13 11:35:56;;;;;;;7.28;3.10;;;21.40;75.50;;;;;;4936015;28;92472;-72
2022/06/13 11:38:24;;;;;;;5.70;1.90;;;21.50;76.00;;;;;;4934251;28;98058;-72
2022/06/13 11:41:16;;;;;;;7.22;3.20;;;21.70;74.40;;;;;;4935384;28;95029;-72
2022/06/13 11:44:08;;;;;;;5.82;2.85;;;22.00;74.80;;;;;;4937433;28;92456;-72
2022/06/13 11:46:53;;;;;;;7.20;2.08;;;22.40;72.80;;;;;;4937331;28;92470;-72
2022/06/13 11:49:30;;;;;;;3.58;2.03;;;22.40;71.00;;;;;;4936776;28;93208;-72
2022/06/13 11:55:24;;;;;;;5.65;1.65;;;22.40;73.40;;;;;;4937125;28;92420;-72
2022/06/13 11:57:57;;;;;;;4.47;1.98;;;22.30;72.60;;;;;;4937254;28;91701;-72
2022/06/13 12:00:37;;;;;;;6.78;1.90;;;22.40;73.80;;;;;;4935051;28;95670;-72
2022/06/13 12:03:16;;;;;;;5.68;2.60;;;22.50;73.10;;;;;;4936935;28;92924;-72
2022/06/13 12:05:44;;;;;;;6.95;3.05;;;22.60;71.50;;;;;;4934166;28;94885;-72
2022/06/13 12:08:21;;;;;;;7.45;2.10;;;22.70;72.00;;;;;;4935609;28;92501;-72
2022/06/13 12:10:59;;;;;;;3.92;1.92;;;22.80;71.80;;;;;;4935258;28;93226;-72
2022/06/13 12:13:30;;;;;;;7.15;2.40;;;22.80;70.60;;;;;;4935497;28;92934;-72
2022/06/13 12:16:12;;;;;;;8.65;3.40;;;22.80;70.70;;;;;;4935485;28;92512;-72
2022/06/13 12:19:19;;;;;;;5.28;1.65;;;22.90;67.50;;;;;;4935743;28;92479;-72
2022/06/13 12:21:46;;;;;;;7.05;2.53;;;22.80;68.10;;;;;;4934302;28;93232;-72
2022/06/13 12:24:26;;;;;;;6.38;2.08;;;22.90;68.90;;;;;;4934792;28;95658;-72
2022/06/13 12:27:06;;;;;;;6.72;1.67;;;22.80;67.90;;;;;;4935155;28;92434;-72
2022/06/13 12:30:04;;;;;;;6.70;1.45;;;22.70;67.50;;;;;;4936578;28;92379;-72
2022/06/13 12:32:36;;;;;;;4.55;1.58;;;22.40;67.70;;;;;;4933114;28;98077;-72
2022/06/13 12:35:15;;;;;;;7.43;2.70;;;22.20;67.80;;;;;;4936364;28;94236;-72
2022/06/13 12:37:52;;;;;;;3.70;1.52;;;22.10;67.70;;;;;;4935276;28;92477;-72
2022/06/13 12:40:37;;;;;;;6.97;2.00;;;22.10;67.90;;;;;;4935175;28;92485;-72
2022/06/13 12:43:23;;;;;;;4.18;1.42;;;22.20;68.90;;;;;;4935230;28;93050;-72
2022/06/13 12:46:19;;;;;;;4.85;1.73;;;22.30;68.90;;;;;;4934809;28;96929;-72
2022/06/13 12:49:02;;;;;;;3.58;1.55;;;22.50;68.30;;;;;;4936659;28;92795;-72
2022/06/13 12:51:34;;;;;;;7.30;2.08;;;22.50;68.60;;;;;;4935297;28;92025;-74
2022/06/13 12:54:01;;;;;;;6.07;2.15;;;22.50;68.20;;;;;;4935026;28;93052;-72
2022/06/13 12:56:34;;;;;;;4.60;1.77;;;22.50;66.80;;;;;;4934439;28;94513;-72
2022/06/13 12:59:31;;;;;;;4.63;1.90;;;22.50;67.50;;;;;;4935080;28;94903;-72
2022/06/13 13:02:23;;;;;;;6.10;2.10;;;22.50;68.20;;;;;;4934781;28;92491;-72
2022/06/13 13:05:11;;;;;;;8.27;2.13;;;22.50;67.20;;;;;;4936047;28;92347;-72
2022/06/13 13:07:49;;;;;;;5.47;1.73;;;22.40;67.00;;;;;;4934641;28;93100;-72
2022/06/13 13:10:22;;;;;;;7.57;1.50;;;22.30;67.10;;;;;;4936117;28;92461;-72
2022/06/13 13:13:10;;;;;;;4.85;1.80;;;22.20;66.20;;;;;;4936090;28;92449;-72
2022/06/13 13:15:52;;;;;;;6.15;2.65;;;22.10;66.30;;;;;;4918343;28;94204;-72
2022/06/13 13:18:38;;;;;;;5.72;1.80;;;22.20;67.40;;;;;;4935102;28;93070;-72
2022/06/13 13:21:22;;;;;;;5.00;1.58;;;22.60;67.20;;;;;;4934663;28;92529;-72
2022/06/13 13:24:26;;;;;;;13.25;2.70;;;22.80;66.70;;;;;;4934745;28;92488;-72
2022/06/13 13:27:17;;;;;;;7.10;3.40;;;23.00;66.70;;;;;;4933385;28;95542;-72
2022/06/13 13:30:13;;;;;;;5.53;1.80;;;23.00;66.20;;;;;;4935488;28;95315;-72
2022/06/13 13:32:59;;;;;;;5.32;1.92;;;23.10;64.20;;;;;;4934110;28;92512;-72
2022/06/13 13:35:38;;;;;;;6.22;2.08;;;23.10;63.60;;;;;;4935417;28;92447;-74
2022/06/13 13:38:13;;;;;;;4.70;1.92;;;23.30;62.60;;;;;;4937509;28;95843;-72
2022/06/13 13:40:52;;;;;;;7.20;1.80;;;23.20;63.10;;;;;;4938678;28;92907;-72
2022/06/13 13:43:42;;;;;;;4.40;1.98;;;23.00;63.30;;;;;;4939196;28;92475;-72
2022/06/13 13:46:21;;;;;;;4.18;1.92;;;22.80;62.90;;;;;;4939440;28;92260;-72
2022/06/13 13:49:01;;;;;;;6.43;1.77;;;22.50;63.70;;;;;;4937580;28;93114;-72
2022/06/13 13:51:40;;;;;;;3.80;1.48;;;22.60;64.20;;;;;;4938590;28;92905;-72
2022/06/13 13:54:18;;;;;;;4.00;1.85;;;22.70;64.90;;;;;;4937700;28;94741;-72